Time;durP1;ratioP1;P1;durP2;ratioP2;P2;SDS_P1;SDS_P2;PMS_P1;PMS_P2;Temp;Humidity;BMP_temperature;BMP_pressure;BME280_temperature;BME280_humidity;BME280_pressure;Samples;Min_cycle;Max_cycle;Signal;HPM_P1;HPM_P2
2021/06/02 00:00:23;;;;;;;21.27;13.08;;;;;;;15.26;63.64;100932.78;1644936;85;26121;-62
2021/06/02 00:02:54;;;;;;;20.50;12.70;;;;;;;15.24;63.73;100939.23;1645452;85;25714;-62
2021/06/02 00:05:26;;;;;;;17.82;11.97;;;;;;;15.19;63.76;100935.44;1645490;85;27417;-61
2021/06/02 00:07:54;;;;;;;23.32;12.75;;;;;;;15.15;63.88;100943.80;1566012;90;25697;-62
2021/06/02 00:10:22;;;;;;;22.65;13.60;;;;;;;15.12;63.94;100947.55;1575791;89;25475;-62
2021/06/02 00:12:50;;;;;;;21.60;12.93;;;;;;;15.10;63.99;100948.13;1598619;88;25902;-62
2021/06/02 00:15:17;;;;;;;19.57;12.07;;;;;;;15.06;63.98;100952.44;1588783;88;25534;-62
2021/06/02 00:17:46;;;;;;;20.23;12.37;;;;;;;15.00;64.04;100940.63;1618470;87;27905;-62
2021/06/02 00:20:15;;;;;;;23.25;13.32;;;;;;;14.96;64.12;100949.38;1598956;87;25561;-62
2021/06/02 00:22:41;;;;;;;26.70;13.20;;;;;;;14.93;64.10;100945.51;1589897;87;25712;-62
2021/06/02 00:25:14;;;;;;;27.90;12.35;;;;;;;14.86;64.18;100944.11;1602025;87;26358;-62
2021/06/02 00:27:42;;;;;;;19.42;12.63;;;;;;;14.81;64.22;100944.38;1606206;87;25616;-61
2021/06/02 00:30:14;;;;;;;22.50;11.88;;;;;;;14.80;64.30;100953.42;1611221;87;27372;-62
2021/06/02 00:32:44;;;;;;;22.48;13.30;;;;;;;14.77;64.22;100948.20;1615004;87;25488;-62
2021/06/02 00:35:19;;;;;;;18.37;11.88;;;;;;;14.74;64.33;100952.89;1601221;87;25422;-62
2021/06/02 00:37:51;;;;;;;27.30;13.45;;;;;;;14.71;64.28;100954.41;1613482;87;26315;-62
2021/06/02 00:40:46;;;;;;;18.60;12.75;;;;;;;14.63;64.29;100952.63;1607068;88;25509;-62
2021/06/02 00:43:15;;;;;;;18.12;11.70;;;;;;;14.59;64.42;100956.83;1604013;87;27523;-62
2021/06/02 00:45:46;;;;;;;20.37;13.35;;;;;;;14.57;64.46;100961.44;1617346;87;25743;-62
2021/06/02 00:48:19;;;;;;;;;;;;;;;14.57;64.47;100966.84;1654374;85;25610;-62
2021/06/02 00:50:51;;;;;;;24.65;11.83;;;;;;;14.55;64.58;100966.05;1634145;85;25701;-62
2021/06/02 00:53:22;;;;;;;20.23;12.13;;;;;;;14.53;64.50;100972.01;1646653;85;25414;-61
2021/06/02 00:55:52;;;;;;;19.80;11.75;;;;;;;14.53;64.55;100970.66;1652229;85;28063;-62
2021/06/02 00:58:42;;;;;;;19.70;11.03;;;;;;;14.54;64.54;100975.09;1657229;85;25867;-62
2021/06/02 01:01:13;;;;;;;18.27;13.15;;;;;;;14.53;64.43;100972.01;1647877;85;25638;-62
2021/06/02 01:03:41;;;;;;;19.82;11.65;;;;;;;14.53;64.48;100977.88;1612384;87;25742;-62
2021/06/02 01:06:08;;;;;;;22.93;12.23;;;;;;;14.48;64.43;100972.73;1643715;85;25718;-62
2021/06/02 01:08:37;;;;;;;23.00;11.83;;;;;;;14.47;64.49;100970.99;1651065;85;27388;-62
2021/06/02 01:11:06;;;;;;;20.08;12.05;;;;;;;14.48;64.48;100974.08;1653629;85;25947;-62
2021/06/02 01:13:38;;;;;;;21.37;12.37;;;;;;;14.46;64.43;100973.77;1652133;85;25549;-62
2021/06/02 01:16:10;;;;;;;17.70;11.28;;;;;;;14.44;64.52;100972.98;1659051;84;25772;-62
2021/06/02 01:18:39;;;;;;;22.17;12.10;;;;;;;14.42;64.45;100977.11;1646134;85;25652;-62
2021/06/02 01:21:10;;;;;;;20.25;12.03;;;;;;;14.37;64.40;100981.84;1650833;85;27846;-62
2021/06/02 01:23:40;;;;;;;21.52;11.55;;;;;;;14.28;64.47;100970.20;1652511;85;25547;-62
2021/06/02 01:26:11;;;;;;;19.45;11.70;;;;;;;14.32;64.53;100981.70;1621273;86;25617;-62
2021/06/02 01:28:40;;;;;;;17.87;11.70;;;;;;;14.29;64.49;100981.38;1652002;85;25529;-62
2021/06/02 01:31:08;;;;;;;17.85;11.75;;;;;;;14.27;64.50;100980.59;1651765;85;25658;-62
2021/06/02 01:34:13;;;;;;;23.10;11.48;;;;;;;14.27;64.55;100981.94;1653201;85;27517;-61
2021/06/02 01:37:31;;;;;;;17.70;11.03;;;;;;;14.26;64.53;100981.55;1651223;85;25654;-62
2021/06/02 01:40:39;;;;;;;20.77;11.40;;;;;;;14.24;64.53;100985.67;1599594;85;25728;-62
2021/06/02 01:44:01;;;;;;;19.73;11.73;;;;;;;14.19;64.46;100999.00;1627994;85;25793;-62
2021/06/02 01:47:13;;;;;;;18.20;10.75;;;;;;;14.14;64.46;101003.77;1659238;84;25419;-62
2021/06/02 01:50:21;;;;;;;20.57;11.70;;;;;;;14.06;64.50;101003.30;1662625;84;27907;-61
2021/06/02 01:53:27;;;;;;;25.00;11.20;;;;;;;14.05;64.47;101011.85;1657588;84;25654;-62
2021/06/02 01:56:47;;;;;;;22.87;11.48;;;;;;;14.02;64.51;101009.79;1668853;84;25580;-61
2021/06/02 01:59:49;;;;;;;21.10;12.30;;;;;;;14.00;64.57;101009.87;1652561;84;25670;-62
2021/06/02 02:02:36;;;;;;;24.47;11.68;;;;;;;13.98;64.54;101012.64;1652843;84;25556;-62
2021/06/02 02:05:35;;;;;;;26.48;12.70;;;;;;;13.99;64.53;101020.25;1657393;84;28048;-62
2021/06/02 02:08:42;;;;;;;21.15;11.45;;;;;;;14.01;64.56;101022.88;1645263;84;26254;-61
2021/06/02 02:11:40;;;;;;;16.20;11.43;;;;;;;14.02;64.55;101017.41;1663703;84;25759;-62
2021/06/02 02:14:40;;;;;;;19.30;11.70;;;;;;;14.01;64.48;101017.00;1654178;84;25549;-61
2021/06/02 02:18:02;;;;;;;22.32;12.30;;;;;;;13.98;64.50;101020.73;1655926;84;25377;-62
2021/06/02 02:20:55;;;;;;;23.85;11.60;;;;;;;13.97;64.47;101016.29;1656650;84;27879;-62
2021/06/02 02:23:58;;;;;;;18.40;11.55;;;;;;;13.97;64.46;101020.33;1645570;84;25817;-62
2021/06/02 02:26:54;;;;;;;24.37;11.15;;;;;;;13.96;64.47;101026.67;1658118;84;25725;-62
2021/06/02 02:29:58;;;;;;;21.10;12.03;;;;;;;13.96;64.44;101034.76;1653331;85;25758;-62
2021/06/02 02:33:18;;;;;;;20.65;11.40;;;;;;;13.94;64.41;101032.62;1658080;84;25792;-62
2021/06/02 02:35:58;;;;;;;18.92;11.12;;;;;;;13.93;64.42;101040.30;1658936;84;27417;-62
2021/06/02 02:38:59;;;;;;;19.57;12.28;;;;;;;13.91;64.40;101044.91;1619312;86;25530;-62
2021/06/02 02:42:20;;;;;;;19.52;10.95;;;;;;;13.90;64.36;101045.85;1623767;86;25481;-62
2021/06/02 02:45:30;;;;;;;19.90;11.48;;;;;;;13.86;64.32;101050.13;1605970;88;34802;-61
2021/06/02 02:48:32;;;;;;;17.80;10.23;;;;;;;13.82;64.37;101056.62;1607642;87;25614;-61
2021/06/02 02:52:00;;;;;;;21.12;11.43;;;;;;;13.78;64.34;101056.38;1609002;87;27533;-62
2021/06/02 02:55:07;;;;;;;22.70;11.75;;;;;;;13.74;64.37;101059.70;1601236;88;26573;-61
2021/06/02 02:57:45;;;;;;;18.02;11.15;;;;;;;13.74;64.34;101064.21;1610247;87;25638;-62
2021/06/02 03:00:16;;;;;;;21.15;11.57;;;;;;;13.70;64.36;101064.84;1610502;87;26300;-62
2021/06/02 03:03:24;;;;;;;19.62;10.82;;;;;;;13.69;64.35;101072.52;1575597;89;25521;-62
2021/06/02 03:06:18;;;;;;;20.97;11.60;;;;;;;13.69;64.38;101075.22;1582043;89;27917;-62
2021/06/02 03:09:29;;;;;;;22.37;10.55;;;;;;;13.68;64.32;101076.16;1583026;89;25699;-61
2021/06/02 03:12:20;;;;;;;19.57;10.38;;;;;;;13.65;64.32;101079.01;1598247;88;25650;-62
2021/06/02 03:15:03;;;;;;;19.07;10.55;;;;;;;13.64;64.35;101088.03;1591619;88;25717;-62
2021/06/02 03:17:42;;;;;;;19.52;10.65;;;;;;;13.65;64.31;101091.13;1610242;87;26481;-62
2021/06/02 03:20:51;;;;;;;19.30;11.88;;;;;;;13.64;64.36;101092.08;1597685;88;27441;-62
2021/06/02 03:23:33;;;;;;;19.57;10.30;;;;;;;13.65;64.35;101093.83;1557335;90;25608;-62
2021/06/02 03:26:20;;;;;;;18.07;10.38;;;;;;;13.67;64.35;101091.05;1546421;90;25665;-62
2021/06/02 03:29:19;;;;;;;21.97;11.03;;;;;;;13.68;64.34;101092.33;1572590;89;25831;-62
2021/06/02 03:32:35;;;;;;;18.60;11.28;;;;;;;13.70;64.38;101103.03;1554112;90;25559;-62
2021/06/02 03:35:18;;;;;;;19.25;10.68;;;;;;;13.75;64.40;101103.67;1580643;89;27900;-61
2021/06/02 03:38:01;;;;;;;17.98;9.70;;;;;;;13.76;64.35;101106.30;1558148;90;25565;-62
2021/06/02 03:41:20;;;;;;;16.20;10.25;;;;;;;13.79;64.36;101103.92;1575549;89;25622;-62
2021/06/02 03:43:58;;;;;;;17.17;9.33;;;;;;;13.84;64.42;101110.83;1570020;89;28064;-61
2021/06/02 03:47:03;;;;;;;16.87;9.93;;;;;;;13.89;64.41;101114.17;1550419;90;25906;-62
2021/06/02 03:49:40;;;;;;;16.07;9.43;;;;;;;13.93;64.42;101111.72;1552464;90;27455;-61
2021/06/02 03:52:10;;;;;;;15.50;9.73;;;;;;;13.98;64.40;101113.71;1554747;90;25621;-61
2021/06/02 03:54:59;;;;;;;21.00;10.60;;;;;;;14.03;64.39;101119.34;1536671;90;27250;-62
2021/06/02 03:58:02;;;;;;;17.95;9.28;;;;;;;14.07;64.39;101116.42;1567777;88;25731;-62
2021/06/02 04:00:41;;;;;;;21.50;10.90;;;;;;;14.10;64.33;101110.88;1591200;88;25652;-62
2021/06/02 04:03:28;;;;;;;16.82;9.28;;;;;;;14.15;64.33;101119.61;1590425;88;27318;-62
2021/06/02 04:06:23;;;;;;;19.50;10.13;;;;;;;14.20;64.33;101118.02;1592259;88;25815;-62
2021/06/02 04:09:05;;;;;;;15.48;9.25;;;;;;;14.25;64.32;101128.97;1587883;88;25575;-61
2021/06/02 04:12:04;;;;;;;;;;;;;;;14.31;64.29;101119.70;1581263;89;25701;-61
2021/06/02 04:14:37;;;;;;;17.17;8.77;;;;;;;14.39;64.25;101125.57;1583024;89;25512;-62
2021/06/02 04:17:06;;;;;;;12.80;7.87;;;;;;;14.41;64.23;101126.36;1594562;88;28121;-62
2021/06/02 04:19:36;;;;;;;16.73;8.58;;;;;;;14.44;64.11;101130.28;1588379;88;25590;-62
2021/06/02 04:22:08;;;;;;;18.50;9.18;;;;;;;14.47;64.14;101131.95;1594554;88;26224;-62
2021/06/02 04:24:43;;;;;;;14.68;9.50;;;;;;;14.52;64.13;101142.03;1589232;88;25930;-67
2021/06/02 04:27:20;;;;;;;15.90;8.33;;;;;;;14.56;64.11;101139.57;1599117;88;25466;-62
2021/06/02 04:29:50;;;;;;;16.32;7.97;;;;;;;14.60;64.08;101137.98;1593937;88;27536;-62
2021/06/02 04:32:20;;;;;;;16.15;8.15;;;;;;;14.64;64.03;101137.82;1595779;88;27193;-62
2021/06/02 04:34:46;;;;;;;14.55;7.53;;;;;;;14.66;63.98;101139.48;1592909;88;25580;-64
2021/06/02 04:37:16;;;;;;;14.98;7.87;;;;;;;14.69;63.94;101137.10;1592052;88;25771;-62
2021/06/02 04:39:44;;;;;;;19.77;8.03;;;;;;;14.73;63.93;101142.73;1590011;88;25613;-62
2021/06/02 04:42:11;;;;;;;19.52;7.87;;;;;;;14.75;63.79;101139.48;1591374;88;27914;-62
2021/06/02 04:44:40;;;;;;;15.10;7.12;;;;;;;14.76;63.82;101142.58;1591547;88;25503;-62
2021/06/02 04:47:09;;;;;;;15.98;8.35;;;;;;;14.78;63.78;101137.48;1598089;88;25784;-63
2021/06/02 04:50:26;;;;;;;17.75;7.70;;;;;;;14.82;63.79;101135.50;1594620;88;25772;-62
2021/06/02 04:53:48;;;;;;;12.55;7.20;;;;;;;14.87;63.70;101141.53;1610667;87;25771;-62
2021/06/02 04:57:04;;;;;;;13.28;6.85;;;;;;;14.93;63.69;101150.65;1580890;89;27862;-62
2021/06/02 05:00:13;;;;;;;10.60;6.80;;;;;;;15.02;63.61;101156.03;1617798;87;25942;-63
2021/06/02 05:03:24;;;;;;;12.05;7.00;;;;;;;15.11;63.54;101162.29;1616573;87;25589;-62
2021/06/02 05:06:43;;;;;;;12.88;6.42;;;;;;;15.21;63.45;101165.76;1595421;88;25620;-64
2021/06/02 05:09:54;;;;;;;19.80;6.67;;;;;;;15.32;63.42;101164.30;1578348;88;25664;-64
2021/06/02 05:13:20;;;;;;;12.85;6.85;;;;;;;15.44;63.31;101171.25;1587835;88;27449;-64
2021/06/02 05:16:42;;;;;;;9.10;6.55;;;;;;;15.57;63.20;101175.05;1622964;87;25580;-63
2021/06/02 05:20:16;;;;;;;17.37;7.53;;;;;;;15.69;63.06;101183.41;1531357;92;25562;-63
2021/06/02 05:23:18;;;;;;;11.93;6.95;;;;;;;15.80;63.01;101184.55;1612288;87;25715;-63
2021/06/02 05:26:35;;;;;;;15.90;7.12;;;;;;;15.90;62.84;101196.58;1569641;89;25740;-64
2021/06/02 05:29:58;;;;;;;11.50;6.78;;;;;;;15.97;62.72;101193.05;1605692;88;27579;-64
2021/06/02 05:33:12;;;;;;;12.25;6.17;;;;;;;16.06;62.62;101198.41;1603431;87;25861;-65
2021/06/02 05:36:33;;;;;;;17.52;8.18;;;;;;;16.16;62.57;101200.50;1599342;88;25756;-64
2021/06/02 05:39:30;;;;;;;13.53;7.05;;;;;;;16.28;62.47;101197.56;1598702;88;25890;-64
2021/06/02 05:42:26;;;;;;;13.13;7.12;;;;;;;16.40;62.37;101200.91;1600427;87;25695;-64
2021/06/02 05:45:49;;;;;;;13.20;6.87;;;;;;;16.47;62.21;101205.48;1567272;89;27953;-64
2021/06/02 05:49:03;;;;;;;13.62;6.72;;;;;;;16.59;62.16;101207.94;1570128;89;25987;-64
2021/06/02 05:52:26;;;;;;;24.50;7.05;;;;;;;16.73;62.02;101219.72;1601205;88;25519;-64
2021/06/02 05:55:41;;;;;;;17.25;7.55;;;;;;;16.90;61.96;101218.70;1619210;86;26388;-64
2021/06/02 05:59:00;;;;;;;16.85;7.22;;;;;;;17.07;61.76;101213.14;1646488;86;25484;-64
2021/06/02 06:02:26;;;;;;;19.70;7.12;;;;;;;17.22;61.63;101219.45;1644692;86;27320;-64
2021/06/02 06:05:33;;;;;;;16.48;7.40;;;;;;;17.37;61.36;101218.98;1642110;86;25626;-64
2021/06/02 06:08:26;;;;;;;22.48;6.55;;;;;;;17.50;61.23;101212.69;1635865;85;25522;-64
2021/06/02 06:11:43;;;;;;;18.02;7.62;;;;;;;17.65;61.03;101214.92;1645767;85;26099;-65
2021/06/02 06:15:05;;;;;;;14.38;7.22;;;;;;;17.83;60.89;101211.55;1654095;85;25857;-64
2021/06/02 06:18:27;;;;;;;14.95;7.12;;;;;;;18.01;60.65;101217.62;1616912;87;27483;-64
2021/06/02 06:21:31;;;;;;;21.25;6.47;;;;;;;18.14;60.42;101217.20;1617285;87;25649;-65
2021/06/02 06:24:16;;;;;;;18.98;7.62;;;;;;;18.24;60.11;101216.95;1597515;88;25450;-66
2021/06/02 06:27:14;;;;;;;13.50;7.53;;;;;;;18.28;59.96;101208.11;1516897;92;25755;-65
2021/06/02 06:30:13;;;;;;;12.35;6.47;;;;;;;18.36;59.75;101220.69;1470685;96;25708;-65
2021/06/02 06:32:44;;;;;;;17.40;6.95;;;;;;;18.45;59.59;101220.08;1481552;95;27937;-65
2021/06/02 06:35:17;;;;;;;12.90;7.62;;;;;;;18.46;59.27;101225.40;1473264;96;25636;-67
2021/06/02 06:37:49;;;;;;;11.35;7.12;;;;;;;18.51;59.18;101229.16;1479542;95;25725;-65
2021/06/02 06:40:27;;;;;;;15.20;7.00;;;;;;;18.57;58.93;101235.54;1474564;95;25799;-65
2021/06/02 06:43:02;;;;;;;14.28;7.03;;;;;;;18.64;58.87;101238.75;1479342;95;25436;-65
2021/06/02 06:45:39;;;;;;;13.72;7.20;;;;;;;18.70;58.63;101235.62;1468665;96;27351;-65
2021/06/02 06:48:22;;;;;;;20.02;7.85;;;;;;;18.76;58.45;101236.07;1475363;96;25503;-64
2021/06/02 06:50:58;;;;;;;12.88;7.17;;;;;;;18.75;58.21;101239.77;1512387;92;25587;-64
2021/06/02 06:53:28;;;;;;;15.00;7.58;;;;;;;18.80;58.18;101239.45;1526660;92;25739;-64
2021/06/02 06:55:57;;;;;;;16.95;8.43;;;;;;;18.85;57.95;101235.06;1544593;91;25694;-64
2021/06/02 06:58:26;;;;;;;35.25;8.23;;;;;;;18.83;57.74;101239.72;1543614;90;27336;-65
2021/06/02 07:00:54;;;;;;;20.85;7.10;;;;;;;18.85;57.65;101251.36;1526308;92;25701;-64
2021/06/02 07:03:23;;;;;;;16.55;7.85;;;;;;;18.85;57.47;101244.08;1580164;89;25576;-65
2021/06/02 07:05:50;;;;;;;18.50;7.08;;;;;;;18.89;57.45;101247.45;1627822;85;25531;-64
2021/06/02 07:08:18;;;;;;;19.65;7.92;;;;;;;18.95;57.29;101247.91;1620743;87;25567;-64
2021/06/02 07:10:46;;;;;;;18.02;8.30;;;;;;;19.01;57.25;101246.13;1616417;87;27350;-65
2021/06/02 07:13:17;;;;;;;18.12;8.55;;;;;;;19.10;57.06;101246.84;1605805;87;25729;-66
2021/06/02 07:15:46;;;;;;;27.02;8.75;;;;;;;19.14;56.99;101249.73;1585760;87;25509;-64
2021/06/02 07:18:21;;;;;;;19.48;8.50;;;;;;;19.21;56.92;101245.23;1619666;87;26308;-64
2021/06/02 07:20:52;;;;;;;21.05;7.45;;;;;;;19.26;56.64;101241.70;1618537;87;25603;-64
2021/06/02 07:23:20;;;;;;;15.10;8.35;;;;;;;19.26;56.61;101240.34;1619959;87;27519;-64
2021/06/02 07:25:48;;;;;;;16.48;8.15;;;;;;;19.31;56.43;101243.13;1609646;87;25881;-63
2021/06/02 07:28:26;;;;;;;21.17;8.33;;;;;;;19.37;56.33;101239.09;1586994;89;25649;-63
2021/06/02 07:30:52;;;;;;;13.65;6.80;;;;;;;19.48;56.20;101243.29;1620637;87;25773;-64
2021/06/02 07:33:20;;;;;;;13.58;8.10;;;;;;;19.61;56.05;101241.95;1614279;87;25480;-64
2021/06/02 07:35:48;;;;;;;14.83;7.53;;;;;;;19.76;55.92;101240.86;1616128;87;27410;-64
2021/06/02 07:38:16;;;;;;;22.00;7.78;;;;;;;19.88;55.73;101237.73;1618806;87;25569;-64
2021/06/02 07:40:45;;;;;;;22.75;8.55;;;;;;;20.03;55.62;101242.93;1606318;87;25601;-64
2021/06/02 07:43:17;;;;;;;11.57;7.73;;;;;;;20.19;55.35;101248.11;1620084;87;25624;-64
2021/06/02 07:45:50;;;;;;;25.97;8.35;;;;;;;20.34;55.21;101242.02;1614290;87;25668;-64
2021/06/02 07:48:19;;;;;;;13.28;7.50;;;;;;;20.46;54.94;101245.22;1621231;86;28107;-64
2021/06/02 07:50:46;;;;;;;14.70;7.33;;;;;;;20.69;54.90;101247.57;1598263;88;25659;-63
2021/06/02 07:53:13;;;;;;;17.02;8.23;;;;;;;20.87;54.64;101250.22;1588596;88;25651;-64
2021/06/02 07:55:39;;;;;;;12.45;6.92;;;;;;;21.07;54.50;101252.77;1608549;87;25781;-64
2021/06/02 07:58:07;;;;;;;15.90;8.00;;;;;;;21.25;54.30;101249.13;1590861;88;25706;-66
2021/06/02 08:00:36;;;;;;;18.75;6.87;;;;;;;21.35;53.93;101248.78;1649707;85;28077;-66
2021/06/02 08:03:04;;;;;;;19.92;7.12;;;;;;;21.43;53.72;101253.63;1651697;85;25671;-65
2021/06/02 08:05:33;;;;;;;15.83;7.40;;;;;;;21.45;53.36;101261.20;1650677;85;25530;-66
2021/06/02 08:08:01;;;;;;;14.18;6.85;;;;;;;21.35;53.02;101265.15;1656102;85;25825;-66
2021/06/02 08:10:29;;;;;;;19.27;6.97;;;;;;;21.34;52.98;101267.50;1662399;85;25558;-66
2021/06/02 08:12:58;;;;;;;12.73;6.33;;;;;;;21.35;52.76;101267.87;1654995;85;27893;-64
2021/06/02 08:15:27;;;;;;;11.97;5.42;;;;;;;21.38;52.56;101268.50;1658262;85;25524;-64
2021/06/02 08:17:56;;;;;;;12.63;5.17;;;;;;;21.46;52.26;101272.48;1611903;87;25588;-63
2021/06/02 08:20:24;;;;;;;24.60;6.70;;;;;;;21.50;51.71;101265.30;1654892;85;26335;-63
2021/06/02 08:22:49;;;;;;;26.00;4.83;;;;;;;21.38;50.87;101279.91;1649997;85;25643;-64
2021/06/02 08:25:18;;;;;;;9.63;4.70;;;;;;;21.36;50.48;101272.34;1659122;85;27553;-63
2021/06/02 08:27:47;;;;;;;12.73;4.60;;;;;;;21.36;50.24;101273.70;1602886;87;25725;-63
2021/06/02 08:30:18;;;;;;;18.55;4.92;;;;;;;21.37;49.84;101282.26;1647031;85;25419;-63
2021/06/02 08:32:47;;;;;;;16.00;4.92;;;;;;;21.38;49.47;101274.45;1605478;87;26583;-63
2021/06/02 08:35:18;;;;;;;10.08;4.30;;;;;;;21.38;49.07;101271.72;1601586;87;25622;-64
2021/06/02 08:37:47;;;;;;;14.55;4.58;;;;;;;21.41;48.81;101276.06;1615695;87;27414;-64
2021/06/02 08:40:20;;;;;;;11.00;4.30;;;;;;;21.41;47.70;101279.66;1651418;85;25435;-64
2021/06/02 08:42:50;;;;;;;9.53;3.40;;;;;;;21.33;47.22;101277.54;1651339;85;25785;-64
2021/06/02 08:45:20;;;;;;;16.10;4.10;;;;;;;21.36;47.14;101279.16;1651409;85;25766;-64
2021/06/02 08:47:48;;;;;;;10.85;3.10;;;;;;;21.40;46.80;101273.84;1652621;85;25463;-64
2021/06/02 08:50:19;;;;;;;12.63;3.45;;;;;;;21.41;46.54;101274.21;1652708;85;27662;-63
2021/06/02 08:52:48;;;;;;;11.03;3.47;;;;;;;21.39;46.22;101279.78;1616175;87;25619;-64
2021/06/02 08:55:20;;;;;;;23.85;3.90;;;;;;;21.38;45.93;101284.86;1581134;89;25647;-65
2021/06/02 08:57:53;;;;;;;13.18;3.80;;;;;;;21.36;45.50;101288.70;1617825;87;25971;-65
2021/06/02 09:00:27;;;;;;;10.75;3.35;;;;;;;21.33;45.03;101286.21;1615574;87;25541;-64
2021/06/02 09:02:54;;;;;;;13.22;3.83;;;;;;;21.32;44.67;101290.80;1598987;88;27297;-65
2021/06/02 09:05:39;;;;;;;13.85;3.12;;;;;;;21.33;44.44;101291.66;1617960;87;25903;-65
2021/06/02 09:08:10;;;;;;;13.75;4.10;;;;;;;21.38;43.46;101279.91;1588982;88;25515;-65
2021/06/02 09:10:45;;;;;;;11.63;4.28;;;;;;;21.40;43.71;101290.20;1590776;88;25784;-65
2021/06/02 09:13:24;;;;;;;8.05;4.53;;;;;;;21.60;43.69;101294.08;1595525;88;25781;-65
2021/06/02 09:15:54;;;;;;;8.50;3.92;;;;;;;21.77;43.36;101294.11;1619379;87;27355;-64
2021/06/02 09:18:25;;;;;;;7.37;3.52;;;;;;;21.91;43.19;101299.33;1584496;89;25613;-59
2021/06/02 09:20:56;;;;;;;10.68;3.58;;;;;;;22.09;43.10;101295.64;1610427;87;25832;-58
2021/06/02 09:23:44;;;;;;;16.32;4.60;;;;;;;22.27;43.00;101303.20;1613410;87;26247;-59
2021/06/02 09:26:18;;;;;;;16.37;4.28;;;;;;;22.57;42.63;101293.47;1612135;87;25451;-59
2021/06/02 09:28:59;;;;;;;8.78;4.08;;;;;;;22.57;42.63;101293.47;1611764;87;27544;-59
2021/06/02 09:31:47;;;;;;;16.02;4.83;;;;;;;22.58;41.58;101289.73;1620339;87;25577;-59
2021/06/02 09:34:27;;;;;;;11.33;4.53;;;;;;;22.44;41.36;101298.21;1615340;87;25639;-59
2021/06/02 09:37:06;;;;;;;18.10;4.72;;;;;;;22.53;41.37;101291.98;1627736;87;25937;-59
2021/06/02 09:39:42;;;;;;;11.08;4.53;;;;;;;22.64;41.27;101297.42;1610556;87;25598;-59
2021/06/02 09:42:29;;;;;;;12.40;4.53;;;;;;;22.87;41.45;101295.52;1613079;87;27315;-59
2021/06/02 09:45:12;;;;;;;8.50;3.95;;;;;;;23.10;41.13;101293.56;1603804;87;25569;-59
2021/06/02 09:47:56;;;;;;;6.45;3.70;;;;;;;23.32;41.05;101292.08;1614007;87;25436;-68
2021/06/02 09:50:38;;;;;;;16.60;3.83;;;;;;;23.51;40.77;101295.42;1605951;87;26267;-69
2021/06/02 09:53:08;;;;;;;9.43;3.67;;;;;;;23.67;40.65;101296.34;1607553;87;25763;-69
2021/06/02 09:55:41;;;;;;;9.93;3.65;;;;;;;23.59;39.62;101300.63;1621058;87;28061;-68
2021/06/02 09:58:13;;;;;;;10.45;4.20;;;;;;;23.53;39.57;101295.66;1618708;87;25492;-68
2021/06/02 10:01:01;;;;;;;9.68;3.45;;;;;;;23.57;39.74;101304.00;1594126;88;25409;-68
2021/06/02 10:03:33;;;;;;;7.40;3.77;;;;;;;23.68;39.79;101298.95;1602537;87;25733;-71
2021/06/02 10:06:02;;;;;;;8.68;3.95;;;;;;;23.80;39.76;101295.13;1623302;87;25475;-71
2021/06/02 10:08:36;;;;;;;9.88;3.70;;;;;;;23.85;39.50;101296.09;1621484;87;27336;-72
2021/06/02 10:11:18;;;;;;;9.00;3.33;;;;;;;23.92;39.46;101294.03;1618975;87;25668;-72
2021/06/02 10:13:53;;;;;;;6.00;3.45;;;;;;;23.96;39.36;101298.73;1623911;87;25569;-71
2021/06/02 10:16:48;;;;;;;4.87;3.25;;;;;;;24.09;39.13;101299.88;1616168;87;25799;-71
2021/06/02 10:19:14;;;;;;;6.08;4.15;;;;;;;24.02;38.62;101294.59;1601649;87;25759;-71
2021/06/02 10:21:50;;;;;;;13.00;3.67;;;;;;;24.03;38.73;101297.69;1618139;87;27400;-71
2021/06/02 10:24:18;;;;;;;7.67;3.50;;;;;;;24.12;38.58;101307.31;1629948;87;25444;-71
2021/06/02 10:26:47;;;;;;;13.60;3.90;;;;;;;24.14;38.45;101302.56;1613359;87;25468;-72
2021/06/02 10:29:15;;;;;;;7.17;3.60;;;;;;;24.35;38.44;101305.78;1619458;87;26404;-70
2021/06/02 10:31:43;;;;;;;6.45;3.22;;;;;;;24.47;38.19;101309.64;1620508;87;25561;-71
2021/06/02 10:34:12;;;;;;;6.75;3.22;;;;;;;24.57;38.07;101309.66;1616406;87;27362;-71
2021/06/02 10:36:38;;;;;;;11.40;3.62;;;;;;;24.52;37.57;101303.73;1596757;88;25568;-71
2021/06/02 10:39:07;;;;;;;15.48;3.50;;;;;;;24.50;37.59;101304.37;1590445;88;25483;-71
2021/06/02 10:41:54;;;;;;;6.95;3.40;;;;;;;24.64;37.55;101310.83;1592336;88;25689;-71
2021/06/02 10:44:31;;;;;;;12.70;3.02;;;;;;;24.79;37.50;101299.82;1620208;87;25644;-71
2021/06/02 10:47:05;;;;;;;11.28;2.92;;;;;;;24.86;37.30;101311.09;1616367;87;27425;-71
2021/06/02 10:49:37;;;;;;;5.30;2.92;;;;;;;24.95;37.02;101312.97;1582361;89;25538;-72
2021/06/02 10:52:07;;;;;;;10.20;3.10;;;;;;;24.98;36.99;101307.73;1656202;85;25735;-71
2021/06/02 10:54:43;;;;;;;5.97;3.10;;;;;;;25.13;36.94;101311.78;1653234;85;26260;-72
2021/06/02 10:57:14;;;;;;;12.05;2.67;;;;;;;25.23;36.77;101299.80;1649083;85;25428;-72
2021/06/02 10:59:44;;;;;;;6.42;2.85;;;;;;;25.15;36.30;101301.53;1652191;85;27525;-71
2021/06/02 11:02:30;;;;;;;8.70;2.87;;;;;;;25.09;36.31;101298.00;1653214;85;25590;-72
2021/06/02 11:05:21;;;;;;;7.40;2.30;;;;;;;25.18;36.31;101308.11;1653145;85;25600;-72
2021/06/02 11:07:55;;;;;;;5.45;3.08;;;;;;;25.29;36.26;101307.95;1651041;85;26530;-72
2021/06/02 11:10:34;;;;;;;6.30;2.58;;;;;;;25.37;35.86;101292.13;1647779;85;25890;-71
2021/06/02 11:13:08;;;;;;;4.80;2.75;;;;;;;25.40;35.65;101298.20;1647640;85;27940;-70
2021/06/02 11:15:44;;;;;;;6.00;2.62;;;;;;;25.40;35.38;101300.08;1655160;85;25826;-72
2021/06/02 11:18:23;;;;;;;14.47;3.05;;;;;;;25.36;35.23;101302.75;1634922;86;25897;-71
2021/06/02 11:21:00;;;;;;;6.53;2.60;;;;;;;25.36;35.12;101302.25;1634491;86;25698;-71
2021/06/02 11:23:38;;;;;;;6.80;2.77;;;;;;;25.45;34.91;101314.22;1642109;86;25453;-71
2021/06/02 11:26:29;;;;;;;5.65;2.67;;;;;;;25.44;34.71;101314.73;1639342;85;28086;-71
2021/06/02 11:28:58;;;;;;;18.87;2.87;;;;;;;25.38;34.39;101316.69;1640773;86;25514;-72
2021/06/02 11:31:30;;;;;;;23.57;3.67;;;;;;;25.45;34.37;101301.37;1632990;86;25815;-71
2021/06/02 11:34:30;;;;;;;10.15;3.25;;;;;;;25.46;34.02;101307.72;1637355;86;26199;-72
2021/06/02 11:37:06;;;;;;;6.50;2.35;;;;;;;25.47;34.07;101308.95;1618696;86;25872;-72
2021/06/02 11:39:37;;;;;;;11.55;2.55;;;;;;;25.55;34.02;101309.59;1628968;86;29004;-72
2021/06/02 11:42:35;;;;;;;7.22;2.50;;;;;;;25.68;34.00;101303.31;1630266;86;25712;-72
2021/06/02 11:45:16;;;;;;;17.05;2.87;;;;;;;25.79;33.94;101302.27;1612257;86;25777;-72
2021/06/02 11:47:56;;;;;;;11.10;3.27;;;;;;;25.87;33.78;101303.25;1593102;88;26252;-72
2021/06/02 11:50:25;;;;;;;10.60;3.08;;;;;;;25.76;33.60;101312.18;1630616;86;25581;-72
2021/06/02 11:53:04;;;;;;;7.40;2.80;;;;;;;25.74;33.63;101315.58;1637404;86;27397;-72
2021/06/02 11:55:33;;;;;;;7.67;2.90;;;;;;;25.81;33.68;101313.47;1641155;85;25694;-72
2021/06/02 11:58:03;;;;;;;9.17;2.97;;;;;;;25.83;33.42;101311.94;1652713;85;25502;-72
2021/06/02 12:00:36;;;;;;;14.78;3.20;;;;;;;25.90;33.47;101308.09;1655830;84;25921;-72
2021/06/02 12:03:12;;;;;;;23.83;3.65;;;;;;;26.02;33.36;101306.35;1651036;85;25592;-72
2021/06/02 12:05:43;;;;;;;9.20;2.87;;;;;;;26.24;33.28;101309.73;1623351;85;27809;-72
2021/06/02 12:08:13;;;;;;;8.40;2.60;;;;;;;26.60;33.04;101302.48;1652035;85;25555;-72
2021/06/02 12:10:44;;;;;;;6.03;3.10;;;;;;;26.86;33.00;101307.59;1646655;85;25492;-72
2021/06/02 12:13:26;;;;;;;6.80;2.60;;;;;;;27.11;32.77;101304.60;1646248;85;25650;-65
2021/06/02 12:16:04;;;;;;;8.63;3.20;;;;;;;27.26;32.68;101289.26;1650145;85;25468;-65
2021/06/02 12:18:48;;;;;;;4.28;3.25;;;;;;;27.48;32.28;101303.90;1649351;85;27400;-65
2021/06/02 12:21:24;;;;;;;12.23;2.87;;;;;;;27.37;31.19;101304.66;1649970;85;25698;-65
2021/06/02 12:24:06;;;;;;;8.05;2.72;;;;;;;27.05;31.63;101310.23;1591028;88;25784;-65
2021/06/02 12:26:41;;;;;;;6.47;2.55;;;;;;;27.01;31.64;101306.57;1593169;88;25629;-64